createdAt,value
2022-09-01T00:03:37.118Z,26.28
2022-09-01T00:08:36.266Z,26.37
2022-09-01T00:13:35.548Z,26.33
2022-09-01T00:18:38.132Z,26.20
2022-09-01T00:23:37.543Z,26.17
2022-09-01T00:28:37.951Z,26.20
2022-09-01T00:33:39.137Z,26.06
2022-09-01T00:38:38.262Z,26.02
2022-09-01T00:43:42.597Z,25.78
2022-09-01T00:48:44.517Z,25.59
2022-09-01T00:53:52.441Z,25.61
2022-09-01T00:58:52.765Z,25.72
2022-09-01T01:03:53.563Z,25.72
2022-09-01T01:09:05.719Z,25.77
2022-09-01T01:14:12.490Z,25.72
2022-09-01T01:19:38.849Z,25.69
2022-09-01T01:24:39.587Z,25.77
2022-09-01T01:29:44.467Z,25.73
2022-09-01T01:34:47.530Z,25.49
2022-09-01T01:39:49.273Z,25.62
2022-09-01T01:44:50.033Z,25.70
2022-09-01T01:49:49.335Z,25.64
2022-09-01T01:54:49.761Z,25.63
2022-09-01T01:59:48.943Z,25.69
2022-09-01T02:04:48.086Z,25.59
2022-09-01T02:09:49.588Z,25.43
2022-09-01T02:14:51.168Z,25.49
2022-09-01T02:19:49.941Z,25.32
2022-09-01T02:24:52.710Z,25.35
2022-09-01T02:29:55.640Z,25.34
2022-09-01T02:35:01.472Z,25.33
2022-09-01T02:40:02.364Z,25.52
2022-09-01T02:50:46.026Z,25.34
2022-09-01T02:55:47.218Z,25.19
2022-09-01T03:00:46.947Z,25.06
2022-09-01T03:05:46.054Z,25.01
2022-09-01T03:10:47.587Z,24.93
2022-09-01T03:15:46.700Z,24.88
2022-09-01T03:20:53.212Z,24.94
2022-09-01T03:25:53.732Z,24.98
2022-09-01T03:30:55.364Z,24.96
2022-09-01T03:35:56.285Z,25.07
2022-09-01T03:41:02.373Z,25.07
2022-09-01T03:46:05.685Z,25.20
2022-09-01T03:51:06.430Z,25.10
2022-09-01T03:56:09.137Z,24.98
2022-09-01T04:01:16.771Z,24.95
2022-09-01T04:06:24.603Z,24.80
2022-09-01T04:11:28.785Z,24.60
2022-09-01T04:16:56.884Z,24.59
2022-09-01T04:22:16.755Z,24.46
2022-09-01T04:27:27.337Z,24.46
2022-09-01T04:32:28.240Z,24.43
2022-09-01T04:37:30.379Z,24.29
2022-09-01T04:42:37.472Z,24.10
2022-09-01T04:47:37.812Z,24.15
2022-09-01T04:52:40.314Z,24.20
2022-09-01T04:57:49.972Z,24.07
2022-09-01T05:02:57.844Z,24.01
2022-09-01T05:08:23.398Z,24.08
2022-09-01T05:13:49.425Z,24.11
2022-09-01T05:18:58.123Z,24.20
2022-09-01T05:24:05.143Z,24.20
2022-09-01T05:29:10.876Z,24.30
2022-09-01T05:34:20.444Z,24.53
2022-09-01T05:39:19.467Z,24.52
2022-09-01T05:44:22.776Z,24.53
2022-09-01T05:49:24.787Z,24.56
2022-09-01T05:54:25.794Z,24.52
2022-09-01T05:59:31.584Z,24.62
2022-09-01T06:04:35.705Z,24.73
2022-09-01T06:09:48.613Z,24.86
2022-09-01T06:14:54.549Z,25.05
2022-09-01T06:19:56.541Z,25.18
2022-09-01T06:25:02.188Z,25.36
2022-09-01T06:30:15.443Z,25.86
2022-09-01T06:35:32.589Z,26.21
2022-09-01T06:40:39.785Z,26.51
2022-09-01T06:45:44.517Z,26.65
2022-09-01T06:56:05.723Z,27.06
2022-09-01T07:01:12.102Z,27.26
2022-09-01T07:06:59.018Z,27.47
2022-09-01T07:17:23.667Z,27.70
2022-09-01T07:22:36.954Z,27.79
2022-09-01T07:27:41.509Z,27.82
2022-09-01T07:44:05.492Z,28.10
2022-09-01T07:54:29.310Z,28.24
2022-09-01T07:59:30.203Z,28.39
2022-09-01T08:04:43.283Z,28.58
2022-09-01T08:09:45.262Z,28.63
2022-09-01T08:20:20.705Z,28.62
2022-09-01T08:25:59.503Z,28.63
2022-09-01T08:31:00.285Z,28.66
2022-09-01T08:36:11.703Z,28.99
2022-09-01T08:41:28.569Z,29.03
2022-09-01T08:46:36.400Z,29.63
2022-09-01T08:51:41.405Z,30.41
2022-09-01T08:56:49.801Z,31.37
2022-09-01T09:01:58.727Z,32.45
2022-09-01T09:07:07.365Z,33.58
2022-09-01T09:12:23.184Z,34.84
2022-09-01T09:17:27.154Z,35.54
2022-09-01T09:22:29.789Z,36.06
2022-09-01T09:27:31.653Z,36.75
2022-09-01T09:33:15.320Z,37.49
2022-09-01T09:38:37.613Z,38.19
2022-09-01T09:43:42.218Z,37.84
2022-09-01T09:48:43.437Z,38.40
2022-09-01T09:53:44.941Z,39.24
2022-09-01T09:58:46.722Z,39.82
2022-09-01T10:03:49.381Z,40.28
2022-09-01T10:08:52.562Z,40.60
2022-09-01T10:13:53.275Z,41.08
2022-09-01T10:18:53.108Z,41.39
2022-09-01T10:24:17.138Z,42.01
2022-09-01T10:29:17.778Z,42.17
2022-09-01T10:34:19.884Z,42.31
2022-09-01T10:39:28.491Z,42.33
2022-09-01T10:44:35.668Z,42.75
2022-09-01T10:50:01.706Z,43.16
2022-09-01T10:55:15.005Z,43.06
2022-09-01T11:00:37.692Z,43.48
2022-09-01T11:06:13.640Z,42.85
2022-09-01T11:11:25.802Z,43.02
2022-09-01T11:16:50.523Z,43.82
2022-09-01T11:22:04.245Z,44.42
2022-09-01T11:34:00.044Z,45.97
2022-09-01T11:39:09.034Z,46.38
2022-09-01T11:44:15.613Z,46.43
2022-09-01T11:49:29.859Z,46.29
2022-09-01T11:54:29.807Z,46.18
2022-09-01T11:59:34.134Z,46.09
2022-09-01T12:04:38.133Z,46.76
2022-09-01T12:09:46.409Z,46.14
2022-09-01T12:15:28.544Z,43.78
2022-09-01T12:20:34.690Z,43.86
2022-09-01T12:25:45.446Z,44.23
2022-09-01T12:30:47.263Z,43.99
2022-09-01T12:36:06.760Z,43.98
2022-09-01T12:41:25.174Z,43.07
2022-09-01T12:46:44.064Z,43.65
2022-09-01T12:51:45.426Z,44.28
2022-09-01T12:56:52.047Z,43.70
2022-09-01T13:01:51.941Z,43.84
2022-09-01T13:06:53.658Z,44.06
2022-09-01T13:12:09.677Z,44.29
2022-09-01T13:17:32.156Z,43.49
2022-09-01T13:22:54.760Z,44.07
2022-09-01T13:28:15.651Z,44.14
2022-09-01T13:33:19.627Z,44.07
2022-09-01T13:38:21.834Z,44.05
2022-09-01T13:43:22.899Z,44.67
2022-09-01T13:48:22.913Z,44.21
2022-09-01T13:53:36.009Z,43.91
2022-09-01T13:58:38.381Z,43.55
2022-09-01T14:03:37.828Z,43.46
2022-09-01T14:08:38.634Z,42.85
2022-09-01T14:13:42.848Z,42.72
2022-09-01T14:18:42.673Z,42.87
2022-09-01T14:29:02.787Z,42.29
2022-09-01T14:34:01.722Z,42.04
2022-09-01T14:39:02.298Z,42.00
2022-09-01T14:44:15.694Z,42.09
2022-09-01T14:49:22.209Z,42.64
2022-09-01T14:54:26.245Z,42.98
2022-09-01T14:59:25.688Z,42.65
2022-09-01T15:04:24.945Z,41.90
2022-09-01T15:09:34.249Z,41.76
2022-09-01T15:14:43.115Z,41.64
2022-09-01T15:19:42.317Z,41.48
2022-09-01T15:24:56.277Z,40.55
2022-09-01T15:29:59.745Z,40.22
2022-09-01T15:34:59.443Z,39.22
2022-09-01T15:39:59.844Z,39.11
2022-09-01T15:44:59.074Z,38.51
2022-09-01T15:49:57.735Z,37.83
2022-09-01T15:54:59.556Z,37.01
2022-09-01T15:59:58.623Z,36.63
2022-09-01T16:04:57.969Z,35.97
2022-09-01T16:09:59.383Z,35.51
2022-09-01T16:15:09.433Z,34.56
2022-09-01T16:20:15.164Z,34.27
2022-09-01T16:25:16.797Z,33.65
2022-09-01T16:30:30.391Z,33.12
2022-09-01T16:35:58.923Z,32.51
2022-09-01T16:41:12.024Z,32.24
2022-09-01T16:46:25.355Z,31.93
2022-09-01T16:51:34.960Z,31.58
2022-09-01T16:56:55.402Z,31.44
2022-09-01T17:02:06.244Z,31.57
2022-09-01T17:07:13.335Z,31.34
2022-09-01T17:12:28.006Z,31.09
2022-09-01T17:25:19.387Z,30.17
2022-09-01T17:32:04.300Z,29.45
2022-09-01T18:46:24.158Z,27.09
2022-09-01T18:51:32.657Z,27.06
2022-09-01T18:56:42.595Z,26.95
2022-09-01T19:01:51.482Z,26.83
2022-09-01T19:07:01.657Z,26.72
2022-09-01T19:12:14.155Z,26.70
2022-09-01T19:17:31.129Z,26.67
2022-09-01T19:22:40.219Z,26.71
2022-09-01T19:27:39.547Z,26.74
2022-09-01T19:32:40.875Z,26.51
2022-09-01T19:37:40.366Z,26.41
2022-09-01T19:42:44.550Z,26.32
2022-09-01T19:48:10.011Z,26.14
2022-09-01T19:53:38.152Z,26.00
2022-09-01T19:58:47.046Z,25.98
2022-09-01T20:04:12.775Z,25.73
2022-09-01T20:09:18.140Z,25.35
2022-09-01T20:14:34.965Z,25.30
2022-09-01T20:19:42.521Z,25.06
2022-09-01T20:24:41.636Z,25.10
2022-09-01T20:29:48.388Z,24.90
2022-09-01T20:34:54.525Z,24.71
2022-09-01T20:40:01.708Z,24.57
2022-09-01T20:45:06.766Z,24.35
2022-09-01T20:50:12.752Z,24.49
2022-09-01T20:55:16.275Z,24.55
2022-09-01T21:00:23.099Z,24.44
2022-09-01T21:05:34.084Z,24.37
2022-09-01T21:10:47.937Z,24.42
2022-09-01T21:15:52.940Z,24.45
2022-09-01T21:21:05.427Z,24.39
2022-09-01T21:26:04.617Z,24.31
2022-09-01T21:31:41.436Z,24.27
2022-09-01T21:36:49.706Z,24.43
2022-09-01T21:41:52.569Z,24.67
2022-09-01T21:46:51.622Z,24.75
2022-09-01T21:51:52.173Z,24.76
2022-09-01T21:56:53.485Z,24.79
2022-09-01T22:01:52.639Z,24.64
2022-09-01T22:06:53.416Z,24.52
2022-09-01T22:11:52.910Z,24.42
2022-09-01T22:16:52.130Z,24.37
2022-09-01T22:21:53.108Z,24.30
2022-09-01T22:26:52.150Z,24.21
2022-09-01T22:31:51.029Z,24.22
2022-09-01T22:36:52.234Z,24.29
2022-09-01T22:41:51.162Z,24.23
2022-09-01T22:46:50.495Z,24.14
2022-09-01T22:51:49.462Z,24.32
2022-09-01T22:56:50.316Z,24.36
2022-09-01T23:01:51.599Z,24.33
2022-09-01T23:06:52.874Z,24.33
2022-09-01T23:11:53.501Z,24.30
2022-09-01T23:16:52.997Z,24.29
2022-09-01T23:21:52.564Z,24.36
2022-09-01T23:26:52.765Z,24.43
2022-09-01T23:31:51.804Z,24.41
2022-09-01T23:36:50.912Z,24.40
2022-09-01T23:41:49.873Z,24.41
2022-09-01T23:46:50.428Z,24.39
2022-09-01T23:51:49.581Z,24.39
2022-09-01T23:56:48.719Z,24.35
